sensor_id;sensor_type;location;lat;lon;timestamp;P1;durP1;ratioP1;P2;durP2;ratioP2
39300;SDS011;25019;42.626;23.380;2023-03-17T07:51:50;6.37;;;4.53;;
39300;SDS011;25019;42.626;23.380;2023-03-17T07:54:16;5.80;;;4.63;;
39300;SDS011;25019;42.626;23.380;2023-03-17T07:56:42;7.17;;;5.13;;
39300;SDS011;25019;42.626;23.380;2023-03-17T07:59:07;7.40;;;5.60;;
39300;SDS011;25019;42.626;23.380;2023-03-17T08:01:36;6.63;;;4.53;;
39300;SDS011;25019;42.626;23.380;2023-03-17T08:04:02;5.87;;;5.20;;
39300;SDS011;25019;42.626;23.380;2023-03-17T08:06:28;8.13;;;5.63;;
39300;SDS011;25019;42.626;23.380;2023-03-17T08:08:55;7.63;;;6.17;;
39300;SDS011;25019;42.626;23.380;2023-03-17T08:11:21;9.47;;;6.83;;
39300;SDS011;25019;42.626;23.380;2023-03-17T08:13:47;9.93;;;6.83;;
39300;SDS011;25019;42.626;23.380;2023-03-17T08:16:14;8.57;;;6.33;;
39300;SDS011;25019;42.626;23.380;2023-03-17T08:18:40;8.17;;;6.57;;
39300;SDS011;25019;42.626;23.380;2023-03-17T08:21:07;8.40;;;6.70;;
39300;SDS011;25019;42.626;23.380;2023-03-17T08:23:32;8.23;;;7.07;;
39300;SDS011;25019;42.626;23.380;2023-03-17T08:26:01;8.40;;;6.70;;
39300;SDS011;25019;42.626;23.380;2023-03-17T08:28:28;12.37;;;8.23;;
39300;SDS011;25019;42.626;23.380;2023-03-17T08:31:04;12.67;;;7.60;;
39300;SDS011;25019;42.626;23.380;2023-03-17T08:33:41;12.77;;;7.47;;
39300;SDS011;25019;42.626;23.380;2023-03-17T08:36:09;8.43;;;7.00;;
39300;SDS011;25019;42.626;23.380;2023-03-17T08:38:36;8.83;;;7.13;;
39300;SDS011;25019;42.626;23.380;2023-03-17T08:41:03;11.30;;;7.53;;
39300;SDS011;25019;42.626;23.380;2023-03-17T08:43:31;9.17;;;7.33;;
39300;SDS011;25019;42.626;23.380;2023-03-17T08:46:03;11.87;;;8.73;;
39300;SDS011;25019;42.626;23.380;2023-03-17T08:48:33;9.83;;;8.00;;
39300;SDS011;25019;42.626;23.380;2023-03-17T08:50:59;11.43;;;8.53;;
39300;SDS011;25019;42.626;23.380;2023-03-17T08:53:25;13.40;;;8.07;;
39300;SDS011;25019;42.626;23.380;2023-03-17T08:55:53;8.53;;;6.57;;
39300;SDS011;25019;42.626;23.380;2023-03-17T08:58:19;8.07;;;6.53;;
39300;SDS011;25019;42.626;23.380;2023-03-17T09:00:45;9.07;;;6.60;;
39300;SDS011;25019;42.626;23.380;2023-03-17T09:03:11;6.90;;;5.67;;
39300;SDS011;25019;42.626;23.380;2023-03-17T09:05:37;7.17;;;5.47;;
39300;SDS011;25019;42.626;23.380;2023-03-17T09:08:03;8.57;;;5.97;;
39300;SDS011;25019;42.626;23.380;2023-03-17T09:10:29;8.03;;;6.13;;
39300;SDS011;25019;42.626;23.380;2023-03-17T09:12:55;6.63;;;4.57;;
39300;SDS011;25019;42.626;23.380;2023-03-17T09:15:27;7.00;;;5.63;;
39300;SDS011;25019;42.626;23.380;2023-03-17T09:17:53;6.40;;;5.40;;
39300;SDS011;25019;42.626;23.380;2023-03-17T09:20:19;5.77;;;4.63;;
39300;SDS011;25019;42.626;23.380;2023-03-17T09:22:45;5.37;;;4.57;;
39300;SDS011;25019;42.626;23.380;2023-03-17T09:25:12;6.20;;;4.77;;
39300;SDS011;25019;42.626;23.380;2023-03-17T09:27:39;6.23;;;4.77;;
39300;SDS011;25019;42.626;23.380;2023-03-17T09:30:05;5.40;;;4.07;;
39300;SDS011;25019;42.626;23.380;2023-03-17T09:32:33;6.00;;;4.30;;
39300;SDS011;25019;42.626;23.380;2023-03-17T09:34:59;4.87;;;3.37;;
39300;SDS011;25019;42.626;23.380;2023-03-17T09:37:26;5.60;;;3.47;;
39300;SDS011;25019;42.626;23.380;2023-03-17T09:39:52;4.97;;;3.70;;
39300;SDS011;25019;42.626;23.380;2023-03-17T09:42:31;4.60;;;3.40;;
39300;SDS011;25019;42.626;23.380;2023-03-17T09:50:17;5.73;;;3.53;;
39300;SDS011;25019;42.626;23.380;2023-03-17T09:52:46;4.77;;;3.40;;
39300;SDS011;25019;42.626;23.380;2023-03-17T09:55:19;4.40;;;3.97;;
39300;SDS011;25019;42.626;23.380;2023-03-17T09:57:50;5.83;;;3.40;;
39300;SDS011;25019;42.626;23.380;2023-03-17T10:00:19;5.93;;;3.83;;
39300;SDS011;25019;42.626;23.380;2023-03-17T10:02:51;5.63;;;3.67;;
39300;SDS011;25019;42.626;23.380;2023-03-17T10:19:28;10.17;;;4.40;;
39300;SDS011;25019;42.626;23.380;2023-03-17T10:22:04;5.67;;;3.53;;
39300;SDS011;25019;42.626;23.380;2023-03-17T10:24:43;5.17;;;3.93;;
39300;SDS011;25019;42.626;23.380;2023-03-17T10:27:13;5.83;;;4.07;;
39300;SDS011;25019;42.626;23.380;2023-03-17T10:29:41;4.97;;;3.70;;
39300;SDS011;25019;42.626;23.380;2023-03-17T10:32:11;5.17;;;4.03;;
39300;SDS011;25019;42.626;23.380;2023-03-17T10:34:38;4.83;;;3.90;;
39300;SDS011;25019;42.626;23.380;2023-03-17T10:37:06;4.77;;;3.63;;
39300;SDS011;25019;42.626;23.380;2023-03-17T10:39:53;4.67;;;3.33;;
39300;SDS011;25019;42.626;23.380;2023-03-17T10:42:21;8.33;;;4.53;;
39300;SDS011;25019;42.626;23.380;2023-03-17T10:45:06;5.00;;;4.20;;
39300;SDS011;25019;42.626;23.380;2023-03-17T10:47:46;7.33;;;4.20;;
39300;SDS011;25019;42.626;23.380;2023-03-17T10:50:45;7.67;;;4.07;;
39300;SDS011;25019;42.626;23.380;2023-03-17T10:53:06;5.37;;;3.50;;
39300;SDS011;25019;42.626;23.380;2023-03-17T10:55:33;6.67;;;3.73;;
39300;SDS011;25019;42.626;23.380;2023-03-17T10:58:06;5.40;;;3.83;;
39300;SDS011;25019;42.626;23.380;2023-03-17T11:00:39;13.43;;;6.50;;
39300;SDS011;25019;42.626;23.380;2023-03-17T11:03:27;5.57;;;3.97;;
39300;SDS011;25019;42.626;23.380;2023-03-17T11:05:56;4.27;;;3.30;;
39300;SDS011;25019;42.626;23.380;2023-03-17T11:08:29;7.13;;;4.63;;
39300;SDS011;25019;42.626;23.380;2023-03-17T11:11:05;6.60;;;3.73;;
39300;SDS011;25019;42.626;23.380;2023-03-17T11:13:34;6.33;;;3.70;;
39300;SDS011;25019;42.626;23.380;2023-03-17T11:16:05;4.77;;;3.57;;
39300;SDS011;25019;42.626;23.380;2023-03-17T11:18:44;4.20;;;3.50;;
39300;SDS011;25019;42.626;23.380;2023-03-17T11:21:25;6.23;;;4.03;;
39300;SDS011;25019;42.626;23.380;2023-03-17T11:24:00;6.53;;;4.07;;
39300;SDS011;25019;42.626;23.380;2023-03-17T11:32:38;4.20;;;3.40;;
39300;SDS011;25019;42.626;23.380;2023-03-17T11:46:36;4.93;;;3.20;;
39300;SDS011;25019;42.626;23.380;2023-03-17T11:49:40;6.77;;;3.30;;
39300;SDS011;25019;42.626;23.380;2023-03-17T11:58:19;5.97;;;3.77;;
39300;SDS011;25019;42.626;23.380;2023-03-17T12:01:28;5.70;;;4.37;;
39300;SDS011;25019;42.626;23.380;2023-03-17T12:04:26;4.67;;;3.70;;
39300;SDS011;25019;42.626;23.380;2023-03-17T12:07:00;6.77;;;4.20;;
39300;SDS011;25019;42.626;23.380;2023-03-17T12:09:37;6.00;;;4.87;;
39300;SDS011;25019;42.626;23.380;2023-03-17T12:12:08;8.30;;;4.60;;
39300;SDS011;25019;42.626;23.380;2023-03-17T12:17:34;6.60;;;4.10;;
39300;SDS011;25019;42.626;23.380;2023-03-17T12:20:28;6.23;;;4.00;;
39300;SDS011;25019;42.626;23.380;2023-03-17T12:26:10;7.00;;;5.00;;
39300;SDS011;25019;42.626;23.380;2023-03-17T12:28:57;5.93;;;3.60;;
39300;SDS011;25019;42.626;23.380;2023-03-17T12:31:27;7.30;;;4.73;;
39300;SDS011;25019;42.626;23.380;2023-03-17T12:34:30;7.37;;;4.30;;
39300;SDS011;25019;42.626;23.380;2023-03-17T12:37:07;7.37;;;4.60;;
39300;SDS011;25019;42.626;23.380;2023-03-17T12:39:42;6.50;;;4.43;;
39300;SDS011;25019;42.626;23.380;2023-03-17T12:54:12;5.97;;;4.37;;
39300;SDS011;25019;42.626;23.380;2023-03-17T12:56:46;8.10;;;4.97;;
39300;SDS011;25019;42.626;23.380;2023-03-17T12:59:17;4.97;;;4.37;;
39300;SDS011;25019;42.626;23.380;2023-03-17T13:01:56;5.87;;;4.30;;
39300;SDS011;25019;42.626;23.380;2023-03-17T13:04:47;7.97;;;5.47;;
39300;SDS011;25019;42.626;23.380;2023-03-17T13:07:23;7.17;;;4.90;;
39300;SDS011;25019;42.626;23.380;2023-03-17T13:20:40;2.63;;;2.13;;
39300;SDS011;25019;42.626;23.380;2023-03-17T13:23:16;3.67;;;2.00;;
39300;SDS011;25019;42.626;23.380;2023-03-17T13:25:47;4.23;;;2.07;;
39300;SDS011;25019;42.626;23.380;2023-03-17T13:28:24;3.00;;;2.50;;
39300;SDS011;25019;42.626;23.380;2023-03-17T13:31:13;3.57;;;1.80;;
39300;SDS011;25019;42.626;23.380;2023-03-17T13:33:57;4.23;;;1.90;;
39300;SDS011;25019;42.626;23.380;2023-03-17T13:45:05;3.60;;;1.67;;
39300;SDS011;25019;42.626;23.380;2023-03-17T13:47:50;1.87;;;1.50;;
39300;SDS011;25019;42.626;23.380;2023-03-17T13:50:29;2.90;;;1.40;;
39300;SDS011;25019;42.626;23.380;2023-03-17T13:53:00;1.73;;;1.10;;
39300;SDS011;25019;42.626;23.380;2023-03-17T14:00:43;1.20;;;1.10;;
39300;SDS011;25019;42.626;23.380;2023-03-17T14:05:47;2.97;;;1.20;;
39300;SDS011;25019;42.626;23.380;2023-03-17T14:08:16;1.20;;;0.90;;
39300;SDS011;25019;42.626;23.380;2023-03-17T14:10:56;4.10;;;1.70;;
39300;SDS011;25019;42.626;23.380;2023-03-17T14:13:36;2.53;;;1.10;;
39300;SDS011;25019;42.626;23.380;2023-03-17T14:16:20;1.47;;;1.17;;
39300;SDS011;25019;42.626;23.380;2023-03-17T14:18:52;1.30;;;1.10;;
39300;SDS011;25019;42.626;23.380;2023-03-17T14:21:22;2.70;;;1.40;;
39300;SDS011;25019;42.626;23.380;2023-03-17T14:23:57;1.30;;;1.10;;
39300;SDS011;25019;42.626;23.380;2023-03-17T14:26:26;2.20;;;1.20;;
39300;SDS011;25019;42.626;23.380;2023-03-17T14:28:54;2.00;;;1.40;;
39300;SDS011;25019;42.626;23.380;2023-03-17T14:31:27;1.90;;;1.33;;
39300;SDS011;25019;42.626;23.380;2023-03-17T14:33:57;1.17;;;0.80;;
39300;SDS011;25019;42.626;23.380;2023-03-17T14:36:25;1.20;;;0.90;;
39300;SDS011;25019;42.626;23.380;2023-03-17T14:38:56;3.37;;;1.20;;
39300;SDS011;25019;42.626;23.380;2023-03-17T14:41:23;2.63;;;1.40;;
39300;SDS011;25019;42.626;23.380;2023-03-17T14:43:51;1.93;;;1.17;;
39300;SDS011;25019;42.626;23.380;2023-03-17T14:46:22;3.43;;;1.30;;
39300;SDS011;25019;42.626;23.380;2023-03-17T14:48:51;3.17;;;1.40;;
39300;SDS011;25019;42.626;23.380;2023-03-17T14:51:25;1.57;;;1.47;;
39300;SDS011;25019;42.626;23.380;2023-03-17T14:54:03;2.10;;;1.33;;
39300;SDS011;25019;42.626;23.380;2023-03-17T14:56:39;1.43;;;1.27;;
39300;SDS011;25019;42.626;23.380;2023-03-17T14:59:21;2.70;;;1.43;;
39300;SDS011;25019;42.626;23.380;2023-03-17T15:01:54;2.90;;;1.63;;
39300;SDS011;25019;42.626;23.380;2023-03-17T15:04:34;1.80;;;1.20;;
39300;SDS011;25019;42.626;23.380;2023-03-17T15:07:02;1.43;;;1.20;;
39300;SDS011;25019;42.626;23.380;2023-03-17T15:14:30;5.03;;;2.03;;
39300;SDS011;25019;42.626;23.380;2023-03-17T15:16:56;2.50;;;1.87;;
39300;SDS011;25019;42.626;23.380;2023-03-17T15:19:23;4.13;;;1.90;;
39300;SDS011;25019;42.626;23.380;2023-03-17T15:21:52;3.90;;;1.90;;
39300;SDS011;25019;42.626;23.380;2023-03-17T15:24:22;3.23;;;2.13;;
39300;SDS011;25019;42.626;23.380;2023-03-17T15:27:16;2.50;;;1.87;;
39300;SDS011;25019;42.626;23.380;2023-03-17T15:29:42;5.30;;;2.37;;
39300;SDS011;25019;42.626;23.380;2023-03-17T15:32:13;5.37;;;2.17;;
39300;SDS011;25019;42.626;23.380;2023-03-17T15:34:41;2.27;;;1.70;;
39300;SDS011;25019;42.626;23.380;2023-03-17T15:37:20;3.30;;;1.67;;
39300;SDS011;25019;42.626;23.380;2023-03-17T15:39:56;3.17;;;2.00;;
39300;SDS011;25019;42.626;23.380;2023-03-17T15:42:24;4.03;;;2.30;;
39300;SDS011;25019;42.626;23.380;2023-03-17T15:44:55;3.10;;;2.17;;
39300;SDS011;25019;42.626;23.380;2023-03-17T15:47:24;2.60;;;2.33;;
39300;SDS011;25019;42.626;23.380;2023-03-17T15:49:53;2.27;;;2.07;;
39300;SDS011;25019;42.626;23.380;2023-03-17T15:52:23;5.87;;;2.27;;
39300;SDS011;25019;42.626;23.380;2023-03-17T15:54:52;4.60;;;2.57;;
39300;SDS011;25019;42.626;23.380;2023-03-17T15:57:19;4.53;;;2.67;;
39300;SDS011;25019;42.626;23.380;2023-03-17T15:59:45;4.07;;;2.87;;
39300;SDS011;25019;42.626;23.380;2023-03-17T16:02:44;3.43;;;2.13;;
39300;SDS011;25019;42.626;23.380;2023-03-17T16:05:19;3.53;;;2.60;;
39300;SDS011;25019;42.626;23.380;2023-03-17T16:07:47;5.50;;;2.20;;
39300;SDS011;25019;42.626;23.380;2023-03-17T16:10:14;3.80;;;2.60;;
39300;SDS011;25019;42.626;23.380;2023-03-17T16:12:40;3.30;;;2.30;;
39300;SDS011;25019;42.626;23.380;2023-03-17T16:15:06;7.60;;;2.90;;
39300;SDS011;25019;42.626;23.380;2023-03-17T16:17:33;4.40;;;2.50;;
39300;SDS011;25019;42.626;23.380;2023-03-17T16:19:59;5.60;;;2.83;;
39300;SDS011;25019;42.626;23.380;2023-03-17T16:22:32;4.67;;;2.67;;
39300;SDS011;25019;42.626;23.380;2023-03-17T16:24:59;5.27;;;3.00;;
39300;SDS011;25019;42.626;23.380;2023-03-17T16:27:25;3.87;;;2.37;;
39300;SDS011;25019;42.626;23.380;2023-03-17T16:29:51;2.80;;;1.90;;
39300;SDS011;25019;42.626;23.380;2023-03-17T16:32:17;5.00;;;2.27;;
39300;SDS011;25019;42.626;23.380;2023-03-17T16:34:42;2.87;;;2.20;;
39300;SDS011;25019;42.626;23.380;2023-03-17T16:37:13;2.13;;;1.80;;
39300;SDS011;25019;42.626;23.380;2023-03-17T16:39:40;2.30;;;2.00;;
39300;SDS011;25019;42.626;23.380;2023-03-17T16:45:01;3.43;;;2.20;;
39300;SDS011;25019;42.626;23.380;2023-03-17T16:47:27;3.53;;;2.37;;
39300;SDS011;25019;42.626;23.380;2023-03-17T16:49:53;2.73;;;2.20;;
39300;SDS011;25019;42.626;23.380;2023-03-17T16:52:19;4.00;;;2.43;;
39300;SDS011;25019;42.626;23.380;2023-03-17T16:54:44;4.93;;;2.57;;
39300;SDS011;25019;42.626;23.380;2023-03-17T16:57:10;5.73;;;2.40;;
39300;SDS011;25019;42.626;23.380;2023-03-17T16:59:36;4.37;;;2.30;;
39300;SDS011;25019;42.626;23.380;2023-03-17T17:02:02;3.97;;;2.87;;
39300;SDS011;25019;42.626;23.380;2023-03-17T17:04:28;4.27;;;3.00;;
39300;SDS011;25019;42.626;23.380;2023-03-17T17:06:55;4.87;;;3.10;;
39300;SDS011;25019;42.626;23.380;2023-03-17T17:09:21;3.37;;;2.83;;
39300;SDS011;25019;42.626;23.380;2023-03-17T17:11:46;5.40;;;3.30;;
39300;SDS011;25019;42.626;23.380;2023-03-17T17:14:12;6.97;;;3.33;;
39300;SDS011;25019;42.626;23.380;2023-03-17T17:16:37;4.97;;;3.27;;
39300;SDS011;25019;42.626;23.380;2023-03-17T17:19:16;4.73;;;3.30;;
39300;SDS011;25019;42.626;23.380;2023-03-17T17:21:43;4.83;;;3.37;;
39300;SDS011;25019;42.626;23.380;2023-03-17T17:24:09;8.67;;;5.30;;
39300;SDS011;25019;42.626;23.380;2023-03-17T17:26:36;5.83;;;4.23;;
39300;SDS011;25019;42.626;23.380;2023-03-17T17:29:02;4.60;;;3.40;;
39300;SDS011;25019;42.626;23.380;2023-03-17T17:31:27;7.47;;;5.03;;
39300;SDS011;25019;42.626;23.380;2023-03-17T17:33:53;25.13;;;16.37;;
39300;SDS011;25019;42.626;23.380;2023-03-17T17:36:19;14.07;;;10.10;;
39300;SDS011;25019;42.626;23.380;2023-03-17T17:38:45;11.43;;;7.87;;
39300;SDS011;25019;42.626;23.380;2023-03-17T17:41:11;5.50;;;3.67;;
39300;SDS011;25019;42.626;23.380;2023-03-17T17:43:36;7.27;;;4.97;;
39300;SDS011;25019;42.626;23.380;2023-03-17T17:46:02;14.07;;;9.43;;
39300;SDS011;25019;42.626;23.380;2023-03-17T17:48:28;23.67;;;14.70;;
39300;SDS011;25019;42.626;23.380;2023-03-17T17:50:54;11.17;;;8.60;;
39300;SDS011;25019;42.626;23.380;2023-03-17T17:53:20;7.03;;;4.70;;
39300;SDS011;25019;42.626;23.380;2023-03-17T17:55:47;8.27;;;5.13;;
39300;SDS011;25019;42.626;23.380;2023-03-17T17:58:14;10.43;;;5.87;;
39300;SDS011;25019;42.626;23.380;2023-03-17T18:00:41;14.13;;;5.50;;
39300;SDS011;25019;42.626;23.380;2023-03-17T18:03:07;20.60;;;7.67;;
39300;SDS011;25019;42.626;23.380;2023-03-17T18:05:33;14.60;;;7.93;;
39300;SDS011;25019;42.626;23.380;2023-03-17T18:07:59;13.63;;;7.90;;
39300;SDS011;25019;42.626;23.380;2023-03-17T18:10:26;23.60;;;13.47;;
39300;SDS011;25019;42.626;23.380;2023-03-17T18:12:53;18.73;;;10.80;;
39300;SDS011;25019;42.626;23.380;2023-03-17T18:15:20;15.03;;;7.30;;
39300;SDS011;25019;42.626;23.380;2023-03-17T18:17:47;16.63;;;9.17;;
39300;SDS011;25019;42.626;23.380;2023-03-17T18:20:14;48.07;;;29.93;;
39300;SDS011;25019;42.626;23.380;2023-03-17T18:22:41;19.70;;;11.57;;
39300;SDS011;25019;42.626;23.380;2023-03-17T18:25:08;21.83;;;13.60;;
39300;SDS011;25019;42.626;23.380;2023-03-17T18:27:36;17.67;;;10.07;;
39300;SDS011;25019;42.626;23.380;2023-03-17T18:30:02;12.60;;;6.40;;
39300;SDS011;25019;42.626;23.380;2023-03-17T18:32:30;22.33;;;11.50;;
39300;SDS011;25019;42.626;23.380;2023-03-17T18:34:58;18.63;;;9.63;;
39300;SDS011;25019;42.626;23.380;2023-03-17T18:37:43;17.33;;;9.50;;
39300;SDS011;25019;42.626;23.380;2023-03-17T18:40:09;19.47;;;9.40;;
39300;SDS011;25019;42.626;23.380;2023-03-17T18:42:44;15.37;;;9.50;;
39300;SDS011;25019;42.626;23.380;2023-03-17T18:45:10;25.57;;;14.73;;
39300;SDS011;25019;42.626;23.380;2023-03-17T18:47:36;31.00;;;19.47;;
39300;SDS011;25019;42.626;23.380;2023-03-17T18:50:03;17.77;;;10.83;;
39300;SDS011;25019;42.626;23.380;2023-03-17T18:52:35;19.50;;;11.03;;
39300;SDS011;25019;42.626;23.380;2023-03-17T18:55:02;14.93;;;9.87;;
39300;SDS011;25019;42.626;23.380;2023-03-17T18:57:28;15.53;;;8.47;;
39300;SDS011;25019;42.626;23.380;2023-03-17T18:59:55;18.43;;;10.90;;
39300;SDS011;25019;42.626;23.380;2023-03-17T19:02:20;30.73;;;18.60;;
39300;SDS011;25019;42.626;23.380;2023-03-17T19:04:46;24.87;;;16.07;;
39300;SDS011;25019;42.626;23.380;2023-03-17T19:07:12;47.93;;;26.47;;
39300;SDS011;25019;42.626;23.380;2023-03-17T19:09:38;28.60;;;15.37;;
39300;SDS011;25019;42.626;23.380;2023-03-17T19:12:04;36.60;;;23.20;;
39300;SDS011;25019;42.626;23.380;2023-03-17T19:14:32;34.83;;;18.93;;
39300;SDS011;25019;42.626;23.380;2023-03-17T19:16:58;32.00;;;17.73;;
39300;SDS011;25019;42.626;23.380;2023-03-17T19:19:24;40.17;;;19.93;;
39300;SDS011;25019;42.626;23.380;2023-03-17T19:21:50;25.97;;;15.63;;
39300;SDS011;25019;42.626;23.380;2023-03-17T19:24:15;29.93;;;15.60;;
39300;SDS011;25019;42.626;23.380;2023-03-17T19:26:41;36.93;;;21.10;;
39300;SDS011;25019;42.626;23.380;2023-03-17T19:29:07;25.57;;;12.53;;
39300;SDS011;25019;42.626;23.380;2023-03-17T19:31:34;19.47;;;10.93;;
39300;SDS011;25019;42.626;23.380;2023-03-17T19:34:06;15.37;;;9.70;;
39300;SDS011;25019;42.626;23.380;2023-03-17T19:36:36;17.37;;;9.47;;
39300;SDS011;25019;42.626;23.380;2023-03-17T19:39:05;17.57;;;9.57;;
39300;SDS011;25019;42.626;23.380;2023-03-17T19:41:33;17.53;;;10.67;;
39300;SDS011;25019;42.626;23.380;2023-03-17T19:43:59;16.07;;;9.40;;
39300;SDS011;25019;42.626;23.380;2023-03-17T19:46:25;16.43;;;10.10;;
39300;SDS011;25019;42.626;23.380;2023-03-17T19:48:52;14.73;;;8.87;;
39300;SDS011;25019;42.626;23.380;2023-03-17T19:51:19;12.20;;;7.77;;
39300;SDS011;25019;42.626;23.380;2023-03-17T19:53:44;14.10;;;8.40;;
39300;SDS011;25019;42.626;23.380;2023-03-17T19:56:10;8.97;;;6.33;;
39300;SDS011;25019;42.626;23.380;2023-03-17T19:58:36;19.33;;;10.03;;
39300;SDS011;25019;42.626;23.380;2023-03-17T20:01:03;10.47;;;6.97;;
39300;SDS011;25019;42.626;23.380;2023-03-17T20:03:42;9.80;;;6.93;;
39300;SDS011;25019;42.626;23.380;2023-03-17T20:06:08;12.27;;;7.53;;
39300;SDS011;25019;42.626;23.380;2023-03-17T20:08:36;12.77;;;7.33;;
39300;SDS011;25019;42.626;23.380;2023-03-17T20:11:02;14.63;;;9.27;;
39300;SDS011;25019;42.626;23.380;2023-03-17T20:13:29;12.60;;;7.80;;
39300;SDS011;25019;42.626;23.380;2023-03-17T20:15:55;9.27;;;6.33;;
39300;SDS011;25019;42.626;23.380;2023-03-17T20:18:21;8.53;;;6.27;;
39300;SDS011;25019;42.626;23.380;2023-03-17T20:20:50;9.57;;;7.03;;
39300;SDS011;25019;42.626;23.380;2023-03-17T20:23:17;10.40;;;6.80;;
39300;SDS011;25019;42.626;23.380;2023-03-17T20:25:43;10.80;;;6.70;;
39300;SDS011;25019;42.626;23.380;2023-03-17T20:28:10;9.67;;;6.60;;
39300;SDS011;25019;42.626;23.380;2023-03-17T20:30:36;14.20;;;7.63;;
39300;SDS011;25019;42.626;23.380;2023-03-17T20:33:03;8.93;;;6.70;;
39300;SDS011;25019;42.626;23.380;2023-03-17T20:35:31;12.67;;;7.17;;
39300;SDS011;25019;42.626;23.380;2023-03-17T20:37:57;10.37;;;6.60;;
39300;SDS011;25019;42.626;23.380;2023-03-17T20:40:23;9.53;;;6.27;;
39300;SDS011;25019;42.626;23.380;2023-03-17T20:42:49;12.00;;;7.00;;
39300;SDS011;25019;42.626;23.380;2023-03-17T20:45:16;10.43;;;6.67;;
39300;SDS011;25019;42.626;23.380;2023-03-17T20:47:42;10.93;;;6.53;;
39300;SDS011;25019;42.626;23.380;2023-03-17T20:50:09;8.23;;;6.10;;
39300;SDS011;25019;42.626;23.380;2023-03-17T20:52:37;8.13;;;6.37;;
39300;SDS011;25019;42.626;23.380;2023-03-17T20:55:05;11.13;;;6.40;;
39300;SDS011;25019;42.626;23.380;2023-03-17T20:57:34;7.87;;;6.23;;
39300;SDS011;25019;42.626;23.380;2023-03-17T21:00:01;10.27;;;6.10;;
39300;SDS011;25019;42.626;23.380;2023-03-17T21:02:28;9.57;;;5.87;;
39300;SDS011;25019;42.626;23.380;2023-03-17T21:04:54;11.90;;;6.53;;
39300;SDS011;25019;42.626;23.380;2023-03-17T21:07:20;10.90;;;5.63;;
39300;SDS011;25019;42.626;23.380;2023-03-17T21:09:45;8.13;;;6.20;;
39300;SDS011;25019;42.626;23.380;2023-03-17T21:12:16;9.93;;;5.90;;
39300;SDS011;25019;42.626;23.380;2023-03-17T21:14:43;8.80;;;5.70;;
39300;SDS011;25019;42.626;23.380;2023-03-17T21:17:09;11.50;;;6.43;;
39300;SDS011;25019;42.626;23.380;2023-03-17T21:19:36;10.27;;;6.63;;
39300;SDS011;25019;42.626;23.380;2023-03-17T21:22:02;12.77;;;6.97;;
39300;SDS011;25019;42.626;23.380;2023-03-17T21:24:29;11.00;;;7.07;;
39300;SDS011;25019;42.626;23.380;2023-03-17T21:26:57;12.47;;;7.23;;
39300;SDS011;25019;42.626;23.380;2023-03-17T21:29:25;12.07;;;7.43;;
39300;SDS011;25019;42.626;23.380;2023-03-17T21:31:53;9.47;;;6.57;;
39300;SDS011;25019;42.626;23.380;2023-03-17T21:34:21;11.77;;;7.33;;
39300;SDS011;25019;42.626;23.380;2023-03-17T21:36:48;7.40;;;5.70;;
39300;SDS011;25019;42.626;23.380;2023-03-17T21:39:18;11.53;;;6.90;;
39300;SDS011;25019;42.626;23.380;2023-03-17T21:41:45;10.83;;;7.00;;
39300;SDS011;25019;42.626;23.380;2023-03-17T21:44:13;9.87;;;6.57;;
39300;SDS011;25019;42.626;23.380;2023-03-17T21:46:40;10.83;;;6.73;;
39300;SDS011;25019;42.626;23.380;2023-03-17T21:49:07;12.17;;;7.60;;
39300;SDS011;25019;42.626;23.380;2023-03-17T21:51:33;12.63;;;7.10;;
39300;SDS011;25019;42.626;23.380;2023-03-17T21:53:59;11.93;;;7.10;;
39300;SDS011;25019;42.626;23.380;2023-03-17T21:56:26;12.63;;;6.50;;
39300;SDS011;25019;42.626;23.380;2023-03-17T21:58:53;11.93;;;7.50;;
39300;SDS011;25019;42.626;23.380;2023-03-17T22:01:19;11.97;;;7.67;;
39300;SDS011;25019;42.626;23.380;2023-03-17T22:03:47;12.13;;;7.20;;
39300;SDS011;25019;42.626;23.380;2023-03-17T22:06:14;10.77;;;7.10;;
39300;SDS011;25019;42.626;23.380;2023-03-17T22:08:40;12.43;;;7.53;;
39300;SDS011;25019;42.626;23.380;2023-03-17T22:11:13;11.50;;;7.00;;
39300;SDS011;25019;42.626;23.380;2023-03-17T22:13:41;12.03;;;7.27;;
39300;SDS011;25019;42.626;23.380;2023-03-17T22:16:07;9.27;;;6.70;;
39300;SDS011;25019;42.626;23.380;2023-03-17T22:18:34;10.23;;;6.83;;
39300;SDS011;25019;42.626;23.380;2023-03-17T22:21:01;12.13;;;7.40;;
39300;SDS011;25019;42.626;23.380;2023-03-17T22:23:27;10.73;;;6.77;;
39300;SDS011;25019;42.626;23.380;2023-03-17T22:25:53;9.40;;;5.97;;
39300;SDS011;25019;42.626;23.380;2023-03-17T22:28:20;14.13;;;7.83;;
39300;SDS011;25019;42.626;23.380;2023-03-17T22:30:46;13.13;;;8.00;;
39300;SDS011;25019;42.626;23.380;2023-03-17T22:33:13;13.63;;;7.03;;
39300;SDS011;25019;42.626;23.380;2023-03-17T22:35:39;12.10;;;7.37;;
39300;SDS011;25019;42.626;23.380;2023-03-17T22:38:05;11.70;;;7.20;;
39300;SDS011;25019;42.626;23.380;2023-03-17T22:40:31;14.60;;;8.50;;
39300;SDS011;25019;42.626;23.380;2023-03-17T22:42:57;13.53;;;8.77;;
39300;SDS011;25019;42.626;23.380;2023-03-17T22:45:24;13.03;;;7.63;;
39300;SDS011;25019;42.626;23.380;2023-03-17T22:47:50;10.33;;;7.27;;
39300;SDS011;25019;42.626;23.380;2023-03-17T22:50:18;14.83;;;8.77;;
39300;SDS011;25019;42.626;23.380;2023-03-17T22:52:45;16.83;;;9.70;;
39300;SDS011;25019;42.626;23.380;2023-03-17T22:55:11;16.67;;;10.23;;
39300;SDS011;25019;42.626;23.380;2023-03-17T22:57:37;19.23;;;11.97;;
39300;SDS011;25019;42.626;23.380;2023-03-17T23:00:05;20.83;;;12.03;;
39300;SDS011;25019;42.626;23.380;2023-03-17T23:02:41;19.40;;;10.90;;
39300;SDS011;25019;42.626;23.380;2023-03-17T23:05:10;17.77;;;9.80;;
39300;SDS011;25019;42.626;23.380;2023-03-17T23:07:38;17.27;;;9.50;;
39300;SDS011;25019;42.626;23.380;2023-03-17T23:10:05;13.87;;;8.87;;
39300;SDS011;25019;42.626;23.380;2023-03-17T23:12:35;11.67;;;7.50;;
39300;SDS011;25019;42.626;23.380;2023-03-17T23:15:02;14.67;;;8.67;;
39300;SDS011;25019;42.626;23.380;2023-03-17T23:17:29;13.83;;;8.20;;
39300;SDS011;25019;42.626;23.380;2023-03-17T23:19:55;13.20;;;7.33;;
39300;SDS011;25019;42.626;23.380;2023-03-17T23:22:21;13.03;;;8.43;;
39300;SDS011;25019;42.626;23.380;2023-03-17T23:24:46;12.43;;;8.13;;
39300;SDS011;25019;42.626;23.380;2023-03-17T23:27:12;12.57;;;8.27;;
39300;SDS011;25019;42.626;23.380;2023-03-17T23:29:38;13.80;;;8.53;;
39300;SDS011;25019;42.626;23.380;2023-03-17T23:32:04;13.83;;;8.70;;
39300;SDS011;25019;42.626;23.380;2023-03-17T23:34:30;11.83;;;8.00;;
39300;SDS011;25019;42.626;23.380;2023-03-17T23:36:56;13.07;;;9.07;;
39300;SDS011;25019;42.626;23.380;2023-03-17T23:39:22;15.17;;;8.63;;
39300;SDS011;25019;42.626;23.380;2023-03-17T23:41:47;12.80;;;8.20;;
39300;SDS011;25019;42.626;23.380;2023-03-17T23:44:13;13.27;;;8.40;;
39300;SDS011;25019;42.626;23.380;2023-03-17T23:46:39;14.70;;;8.90;;
39300;SDS011;25019;42.626;23.380;2023-03-17T23:49:04;12.87;;;8.13;;
39300;SDS011;25019;42.626;23.380;2023-03-17T23:51:31;15.20;;;9.10;;
39300;SDS011;25019;42.626;23.380;2023-03-17T23:53:58;14.50;;;8.83;;
39300;SDS011;25019;42.626;23.380;2023-03-17T23:56:24;18.13;;;10.65;;
39300;SDS011;25019;42.626;23.380;2023-03-17T23:58:50;14.67;;;9.83;;
